sensor_id;sensor_type;location;lat;lon;timestamp;P1;durP1;ratioP1;P2;durP2;ratioP2
44973;SDS011;60981;50.720;11.342;2023-04-03T00:00:05;5.35;;;0.80;;
44973;SDS011;60981;50.720;11.342;2023-04-03T00:01:12;6.93;;;1.27;;
44973;SDS011;60981;50.720;11.342;2023-04-03T01:10:10;4.93;;;1.85;;
44973;SDS011;60981;50.720;11.342;2023-04-03T01:11:19;7.22;;;1.58;;
44973;SDS011;60981;50.720;11.342;2023-04-03T01:12:25;6.45;;;1.20;;
44973;SDS011;60981;50.720;11.342;2023-04-03T01:13:33;5.45;;;1.23;;
44973;SDS011;60981;50.720;11.342;2023-04-03T01:14:36;7.32;;;1.92;;
44973;SDS011;60981;50.720;11.342;2023-04-03T01:15:40;4.90;;;1.83;;
44973;SDS011;60981;50.720;11.342;2023-04-03T01:16:53;8.18;;;1.48;;
44973;SDS011;60981;50.720;11.342;2023-04-03T01:17:57;4.85;;;1.42;;
44973;SDS011;60981;50.720;11.342;2023-04-03T01:19:00;4.40;;;1.20;;
44973;SDS011;60981;50.720;11.342;2023-04-03T01:22:34;5.95;;;1.65;;
44973;SDS011;60981;50.720;11.342;2023-04-03T01:23:55;4.03;;;1.13;;
44973;SDS011;60981;50.720;11.342;2023-04-03T01:25:09;5.85;;;1.23;;
44973;SDS011;60981;50.720;11.342;2023-04-03T01:26:13;3.53;;;1.08;;
44973;SDS011;60981;50.720;11.342;2023-04-03T01:27:15;7.50;;;1.60;;
44973;SDS011;60981;50.720;11.342;2023-04-03T01:28:27;6.03;;;2.33;;
44973;SDS011;60981;50.720;11.342;2023-04-03T01:29:41;4.65;;;1.30;;
44973;SDS011;60981;50.720;11.342;2023-04-03T01:32:19;4.75;;;1.63;;
44973;SDS011;60981;50.720;11.342;2023-04-03T01:33:23;3.75;;;1.30;;
44973;SDS011;60981;50.720;11.342;2023-04-03T01:34:29;5.28;;;1.55;;
44973;SDS011;60981;50.720;11.342;2023-04-03T01:35:34;7.80;;;1.70;;
44973;SDS011;60981;50.720;11.342;2023-04-03T01:36:44;4.97;;;1.52;;
44973;SDS011;60981;50.720;11.342;2023-04-03T01:37:47;6.28;;;1.80;;
44973;SDS011;60981;50.720;11.342;2023-04-03T01:38:58;5.95;;;1.30;;
44973;SDS011;60981;50.720;11.342;2023-04-03T01:40:08;4.82;;;1.10;;
44973;SDS011;60981;50.720;11.342;2023-04-03T01:41:24;5.00;;;1.50;;
44973;SDS011;60981;50.720;11.342;2023-04-03T01:42:32;6.15;;;1.55;;
44973;SDS011;60981;50.720;11.342;2023-04-03T01:43:36;6.53;;;1.40;;
44973;SDS011;60981;50.720;11.342;2023-04-03T01:44:40;6.03;;;1.40;;
44973;SDS011;60981;50.720;11.342;2023-04-03T01:45:51;4.10;;;1.55;;
44973;SDS011;60981;50.720;11.342;2023-04-03T01:46:59;5.10;;;1.58;;
44973;SDS011;60981;50.720;11.342;2023-04-03T01:48:02;8.05;;;1.55;;
44973;SDS011;60981;50.720;11.342;2023-04-03T01:49:07;5.72;;;1.65;;
44973;SDS011;60981;50.720;11.342;2023-04-03T01:50:12;7.53;;;1.70;;
44973;SDS011;60981;50.720;11.342;2023-04-03T01:51:14;7.22;;;1.50;;
44973;SDS011;60981;50.720;11.342;2023-04-03T01:52:31;4.25;;;1.60;;
44973;SDS011;60981;50.720;11.342;2023-04-03T01:53:45;6.25;;;1.73;;
44973;SDS011;60981;50.720;11.342;2023-04-03T01:54:53;4.20;;;1.73;;
44973;SDS011;60981;50.720;11.342;2023-04-03T01:56:01;4.47;;;1.60;;
44973;SDS011;60981;50.720;11.342;2023-04-03T01:57:06;6.38;;;1.58;;
44973;SDS011;60981;50.720;11.342;2023-04-03T01:58:15;4.57;;;1.65;;
44973;SDS011;60981;50.720;11.342;2023-04-03T01:59:17;7.13;;;1.42;;
44973;SDS011;60981;50.720;11.342;2023-04-03T02:00:25;6.90;;;1.45;;
44973;SDS011;60981;50.720;11.342;2023-04-03T02:01:31;6.93;;;1.75;;
44973;SDS011;60981;50.720;11.342;2023-04-03T02:02:38;4.78;;;1.40;;
44973;SDS011;60981;50.720;11.342;2023-04-03T02:03:43;8.50;;;1.67;;
44973;SDS011;60981;50.720;11.342;2023-04-03T02:04:45;7.20;;;1.70;;
44973;SDS011;60981;50.720;11.342;2023-04-03T02:05:47;5.38;;;1.30;;
44973;SDS011;60981;50.720;11.342;2023-04-03T02:06:49;5.20;;;1.70;;
44973;SDS011;60981;50.720;11.342;2023-04-03T02:07:55;3.90;;;1.38;;
44973;SDS011;60981;50.720;11.342;2023-04-03T02:08:59;6.47;;;2.08;;
44973;SDS011;60981;50.720;11.342;2023-04-03T02:10:05;3.90;;;1.45;;
44973;SDS011;60981;50.720;11.342;2023-04-03T02:11:22;7.47;;;1.58;;
44973;SDS011;60981;50.720;11.342;2023-04-03T02:12:42;5.90;;;1.70;;
44973;SDS011;60981;50.720;11.342;2023-04-03T02:13:44;8.60;;;2.05;;
44973;SDS011;60981;50.720;11.342;2023-04-03T02:14:49;5.47;;;1.52;;
44973;SDS011;60981;50.720;11.342;2023-04-03T02:16:16;7.18;;;2.15;;
44973;SDS011;60981;50.720;11.342;2023-04-03T02:17:21;4.68;;;1.63;;
44973;SDS011;60981;50.720;11.342;2023-04-03T02:18:26;5.05;;;1.70;;
44973;SDS011;60981;50.720;11.342;2023-04-03T02:19:32;7.13;;;1.65;;
44973;SDS011;60981;50.720;11.342;2023-04-03T02:20:37;9.55;;;2.00;;
44973;SDS011;60981;50.720;11.342;2023-04-03T02:21:50;4.78;;;1.80;;
44973;SDS011;60981;50.720;11.342;2023-04-03T02:22:57;5.60;;;2.13;;
44973;SDS011;60981;50.720;11.342;2023-04-03T02:24:08;9.15;;;2.25;;
44973;SDS011;60981;50.720;11.342;2023-04-03T02:25:19;7.43;;;2.40;;
44973;SDS011;60981;50.720;11.342;2023-04-03T02:26:26;9.38;;;2.75;;
44973;SDS011;60981;50.720;11.342;2023-04-03T02:27:31;7.63;;;2.08;;
44973;SDS011;60981;50.720;11.342;2023-04-03T02:28:34;6.25;;;1.95;;
44973;SDS011;60981;50.720;11.342;2023-04-03T02:29:58;7.93;;;2.05;;
44973;SDS011;60981;50.720;11.342;2023-04-03T02:31:01;7.70;;;2.40;;
44973;SDS011;60981;50.720;11.342;2023-04-03T02:32:04;4.93;;;2.17;;
44973;SDS011;60981;50.720;11.342;2023-04-03T02:33:09;10.00;;;2.38;;
44973;SDS011;60981;50.720;11.342;2023-04-03T02:35:27;6.35;;;3.00;;
44973;SDS011;60981;50.720;11.342;2023-04-03T02:36:33;7.25;;;2.25;;
44973;SDS011;60981;50.720;11.342;2023-04-03T02:37:38;6.13;;;1.83;;
44973;SDS011;60981;50.720;11.342;2023-04-03T02:38:42;6.65;;;2.20;;
44973;SDS011;60981;50.720;11.342;2023-04-03T02:39:55;6.57;;;2.50;;
44973;SDS011;60981;50.720;11.342;2023-04-03T02:41:02;4.78;;;2.38;;
44973;SDS011;60981;50.720;11.342;2023-04-03T02:42:10;7.15;;;2.42;;
44973;SDS011;60981;50.720;11.342;2023-04-03T02:43:19;9.95;;;2.30;;
44973;SDS011;60981;50.720;11.342;2023-04-03T02:44:24;10.68;;;2.78;;
44973;SDS011;60981;50.720;11.342;2023-04-03T02:45:29;9.38;;;2.35;;
44973;SDS011;60981;50.720;11.342;2023-04-03T02:46:31;8.75;;;2.10;;
44973;SDS011;60981;50.720;11.342;2023-04-03T02:47:39;7.18;;;2.17;;
44973;SDS011;60981;50.720;11.342;2023-04-03T02:48:41;6.30;;;2.28;;
44973;SDS011;60981;50.720;11.342;2023-04-03T02:49:48;6.55;;;2.45;;
44973;SDS011;60981;50.720;11.342;2023-04-03T02:50:54;5.25;;;2.35;;
44973;SDS011;60981;50.720;11.342;2023-04-03T02:51:57;5.60;;;2.10;;
44973;SDS011;60981;50.720;11.342;2023-04-03T02:53:03;7.78;;;2.42;;
44973;SDS011;60981;50.720;11.342;2023-04-03T02:54:08;10.95;;;2.63;;
44973;SDS011;60981;50.720;11.342;2023-04-03T02:55:12;7.78;;;2.22;;
44973;SDS011;60981;50.720;11.342;2023-04-03T02:56:16;9.30;;;2.58;;
44973;SDS011;60981;50.720;11.342;2023-04-03T02:57:37;4.65;;;2.00;;
44973;SDS011;60981;50.720;11.342;2023-04-03T02:58:41;10.98;;;2.40;;
44973;SDS011;60981;50.720;11.342;2023-04-03T02:59:50;6.13;;;3.05;;
44973;SDS011;60981;50.720;11.342;2023-04-03T03:01:01;8.38;;;2.50;;
44973;SDS011;60981;50.720;11.342;2023-04-03T03:02:15;5.45;;;2.47;;
44973;SDS011;60981;50.720;11.342;2023-04-03T03:03:21;6.55;;;2.58;;
44973;SDS011;60981;50.720;11.342;2023-04-03T03:04:25;6.38;;;2.83;;
44973;SDS011;60981;50.720;11.342;2023-04-03T03:05:29;6.03;;;2.22;;
44973;SDS011;60981;50.720;11.342;2023-04-03T03:06:31;6.15;;;2.30;;
44973;SDS011;60981;50.720;11.342;2023-04-03T03:07:38;10.80;;;2.60;;
44973;SDS011;60981;50.720;11.342;2023-04-03T03:08:44;6.25;;;2.20;;
44973;SDS011;60981;50.720;11.342;2023-04-03T03:09:59;8.55;;;3.13;;
44973;SDS011;60981;50.720;11.342;2023-04-03T03:11:07;7.82;;;2.60;;
44973;SDS011;60981;50.720;11.342;2023-04-03T03:12:20;6.22;;;3.10;;
44973;SDS011;60981;50.720;11.342;2023-04-03T03:13:23;8.98;;;2.85;;
44973;SDS011;60981;50.720;11.342;2023-04-03T03:14:29;7.63;;;2.95;;
44973;SDS011;60981;50.720;11.342;2023-04-03T03:15:39;9.10;;;2.70;;
44973;SDS011;60981;50.720;11.342;2023-04-03T03:16:44;6.80;;;2.58;;
44973;SDS011;60981;50.720;11.342;2023-04-03T03:17:50;7.57;;;3.17;;
44973;SDS011;60981;50.720;11.342;2023-04-03T03:18:53;9.77;;;3.10;;
44973;SDS011;60981;50.720;11.342;2023-04-03T03:19:58;5.85;;;2.70;;
44973;SDS011;60981;50.720;11.342;2023-04-03T03:21:02;7.88;;;2.80;;
44973;SDS011;60981;50.720;11.342;2023-04-03T03:22:08;7.53;;;2.80;;
44973;SDS011;60981;50.720;11.342;2023-04-03T03:23:13;6.53;;;2.67;;
44973;SDS011;60981;50.720;11.342;2023-04-03T03:24:17;9.77;;;2.95;;
44973;SDS011;60981;50.720;11.342;2023-04-03T03:25:31;6.30;;;2.50;;
44973;SDS011;60981;50.720;11.342;2023-04-03T03:26:43;6.90;;;2.60;;
44973;SDS011;60981;50.720;11.342;2023-04-03T03:27:49;7.63;;;2.92;;
44973;SDS011;60981;50.720;11.342;2023-04-03T03:29:02;5.88;;;3.00;;
44973;SDS011;60981;50.720;11.342;2023-04-03T03:30:18;6.63;;;2.60;;
44973;SDS011;60981;50.720;11.342;2023-04-03T03:31:32;8.95;;;2.88;;
44973;SDS011;60981;50.720;11.342;2023-04-03T03:32:37;7.95;;;3.20;;
44973;SDS011;60981;50.720;11.342;2023-04-03T03:33:42;9.98;;;3.35;;
44973;SDS011;60981;50.720;11.342;2023-04-03T03:34:59;8.38;;;3.22;;
44973;SDS011;60981;50.720;11.342;2023-04-03T03:36:01;6.88;;;2.90;;
44973;SDS011;60981;50.720;11.342;2023-04-03T03:37:09;7.78;;;2.90;;
44973;SDS011;60981;50.720;11.342;2023-04-03T03:38:14;7.78;;;3.40;;
44973;SDS011;60981;50.720;11.342;2023-04-03T03:39:17;7.93;;;3.13;;
44973;SDS011;60981;50.720;11.342;2023-04-03T03:40:21;7.68;;;3.05;;
44973;SDS011;60981;50.720;11.342;2023-04-03T03:41:24;7.63;;;3.10;;
44973;SDS011;60981;50.720;11.342;2023-04-03T03:42:30;8.52;;;3.28;;
44973;SDS011;60981;50.720;11.342;2023-04-03T03:43:35;7.10;;;3.13;;
44973;SDS011;60981;50.720;11.342;2023-04-03T03:44:39;8.02;;;2.90;;
44973;SDS011;60981;50.720;11.342;2023-04-03T03:45:41;8.13;;;3.15;;
44973;SDS011;60981;50.720;11.342;2023-04-03T03:46:46;7.22;;;3.17;;
44973;SDS011;60981;50.720;11.342;2023-04-03T03:47:52;6.45;;;3.28;;
44973;SDS011;60981;50.720;11.342;2023-04-03T03:48:59;7.88;;;3.40;;
44973;SDS011;60981;50.720;11.342;2023-04-03T03:50:02;7.65;;;3.15;;
44973;SDS011;60981;50.720;11.342;2023-04-03T03:51:07;7.22;;;3.30;;
44973;SDS011;60981;50.720;11.342;2023-04-03T03:52:14;7.57;;;3.30;;
44973;SDS011;60981;50.720;11.342;2023-04-03T03:53:16;6.95;;;3.55;;
44973;SDS011;60981;50.720;11.342;2023-04-03T03:54:21;7.93;;;3.45;;
44973;SDS011;60981;50.720;11.342;2023-04-03T03:55:23;9.30;;;3.75;;
44973;SDS011;60981;50.720;11.342;2023-04-03T03:56:28;7.60;;;3.75;;
44973;SDS011;60981;50.720;11.342;2023-04-03T03:57:33;8.43;;;3.42;;
44973;SDS011;60981;50.720;11.342;2023-04-03T03:58:37;9.90;;;3.97;;
44973;SDS011;60981;50.720;11.342;2023-04-03T03:59:40;10.75;;;4.13;;
44973;SDS011;60981;50.720;11.342;2023-04-03T04:00:44;8.25;;;3.35;;
44973;SDS011;60981;50.720;11.342;2023-04-03T04:01:52;16.00;;;4.07;;
44973;SDS011;60981;50.720;11.342;2023-04-03T04:02:57;7.90;;;3.90;;
44973;SDS011;60981;50.720;11.342;2023-04-03T04:04:04;8.63;;;3.60;;
44973;SDS011;60981;50.720;11.342;2023-04-03T04:05:07;9.43;;;3.95;;
44973;SDS011;60981;50.720;11.342;2023-04-03T04:06:09;8.63;;;3.38;;
44973;SDS011;60981;50.720;11.342;2023-04-03T04:07:11;9.15;;;3.42;;
44973;SDS011;60981;50.720;11.342;2023-04-03T04:08:13;8.23;;;3.63;;
44973;SDS011;60981;50.720;11.342;2023-04-03T04:09:16;7.55;;;3.72;;
44973;SDS011;60981;50.720;11.342;2023-04-03T04:10:21;8.60;;;3.78;;
44973;SDS011;60981;50.720;11.342;2023-04-03T04:11:26;8.38;;;3.47;;
44973;SDS011;60981;50.720;11.342;2023-04-03T04:12:30;9.82;;;3.90;;
44973;SDS011;60981;50.720;11.342;2023-04-03T04:13:37;8.63;;;3.50;;
44973;SDS011;60981;50.720;11.342;2023-04-03T04:14:43;8.98;;;3.55;;
44973;SDS011;60981;50.720;11.342;2023-04-03T04:15:49;8.13;;;3.47;;
44973;SDS011;60981;50.720;11.342;2023-04-03T04:16:53;7.13;;;3.58;;
44973;SDS011;60981;50.720;11.342;2023-04-03T04:17:58;8.73;;;3.40;;
44973;SDS011;60981;50.720;11.342;2023-04-03T04:19:01;8.18;;;3.55;;
44973;SDS011;60981;50.720;11.342;2023-04-03T04:20:10;8.25;;;3.45;;
44973;SDS011;60981;50.720;11.342;2023-04-03T04:21:15;9.55;;;4.20;;
44973;SDS011;60981;50.720;11.342;2023-04-03T04:22:27;8.73;;;3.45;;
44973;SDS011;60981;50.720;11.342;2023-04-03T04:23:31;10.07;;;4.13;;
44973;SDS011;60981;50.720;11.342;2023-04-03T04:24:34;9.68;;;4.15;;
44973;SDS011;60981;50.720;11.342;2023-04-03T04:25:40;9.20;;;4.03;;
44973;SDS011;60981;50.720;11.342;2023-04-03T04:26:45;9.63;;;4.70;;
44973;SDS011;60981;50.720;11.342;2023-04-03T04:27:47;12.55;;;4.25;;
44973;SDS011;60981;50.720;11.342;2023-04-03T04:28:49;10.77;;;4.10;;
44973;SDS011;60981;50.720;11.342;2023-04-03T04:29:51;7.22;;;3.88;;
44973;SDS011;60981;50.720;11.342;2023-04-03T04:30:54;7.75;;;3.60;;
44973;SDS011;60981;50.720;11.342;2023-04-03T04:31:59;8.40;;;3.85;;
44973;SDS011;60981;50.720;11.342;2023-04-03T04:33:02;9.05;;;3.92;;
44973;SDS011;60981;50.720;11.342;2023-04-03T04:34:07;8.55;;;3.83;;
44973;SDS011;60981;50.720;11.342;2023-04-03T04:35:12;7.57;;;3.70;;
44973;SDS011;60981;50.720;11.342;2023-04-03T04:36:17;10.88;;;4.05;;
44973;SDS011;60981;50.720;11.342;2023-04-03T04:37:23;9.25;;;3.85;;
44973;SDS011;60981;50.720;11.342;2023-04-03T04:38:28;7.78;;;4.20;;
44973;SDS011;60981;50.720;11.342;2023-04-03T04:39:30;8.75;;;4.22;;
44973;SDS011;60981;50.720;11.342;2023-04-03T04:40:33;12.00;;;4.18;;
44973;SDS011;60981;50.720;11.342;2023-04-03T04:41:37;11.82;;;4.70;;
44973;SDS011;60981;50.720;11.342;2023-04-03T04:42:43;9.15;;;4.20;;
44973;SDS011;60981;50.720;11.342;2023-04-03T04:43:48;10.57;;;4.63;;
44973;SDS011;60981;50.720;11.342;2023-04-03T04:44:51;10.20;;;4.03;;
44973;SDS011;60981;50.720;11.342;2023-04-03T04:47:14;7.70;;;3.90;;
44973;SDS011;60981;50.720;11.342;2023-04-03T04:48:19;9.63;;;4.03;;
44973;SDS011;60981;50.720;11.342;2023-04-03T04:49:21;7.82;;;4.10;;
44973;SDS011;60981;50.720;11.342;2023-04-03T04:50:23;9.73;;;3.92;;
44973;SDS011;60981;50.720;11.342;2023-04-03T04:51:25;10.10;;;4.18;;
44973;SDS011;60981;50.720;11.342;2023-04-03T04:52:48;10.20;;;4.88;;
44973;SDS011;60981;50.720;11.342;2023-04-03T04:53:54;11.38;;;4.57;;
44973;SDS011;60981;50.720;11.342;2023-04-03T04:54:58;12.27;;;4.82;;
44973;SDS011;60981;50.720;11.342;2023-04-03T04:55:59;10.00;;;4.10;;
44973;SDS011;60981;50.720;11.342;2023-04-03T04:57:01;10.00;;;4.10;;
44973;SDS011;60981;50.720;11.342;2023-04-03T04:58:06;8.55;;;4.40;;
44973;SDS011;60981;50.720;11.342;2023-04-03T04:59:11;10.32;;;4.85;;
44973;SDS011;60981;50.720;11.342;2023-04-03T05:00:14;7.63;;;3.67;;
44973;SDS011;60981;50.720;11.342;2023-04-03T05:01:19;9.70;;;3.78;;
44973;SDS011;60981;50.720;11.342;2023-04-03T05:02:23;10.15;;;4.65;;
44973;SDS011;60981;50.720;11.342;2023-04-03T05:03:26;8.32;;;3.58;;
44973;SDS011;60981;50.720;11.342;2023-04-03T05:04:31;10.90;;;3.95;;
44973;SDS011;60981;50.720;11.342;2023-04-03T05:05:34;9.57;;;3.65;;
44973;SDS011;60981;50.720;11.342;2023-04-03T05:06:38;8.82;;;3.55;;
44973;SDS011;60981;50.720;11.342;2023-04-03T05:07:41;8.80;;;3.70;;
44973;SDS011;60981;50.720;11.342;2023-04-03T05:08:44;8.35;;;3.58;;
44973;SDS011;60981;50.720;11.342;2023-04-03T05:09:47;7.43;;;3.67;;
44973;SDS011;60981;50.720;11.342;2023-04-03T05:10:51;7.32;;;3.17;;
44973;SDS011;60981;50.720;11.342;2023-04-03T05:11:56;10.15;;;4.18;;
44973;SDS011;60981;50.720;11.342;2023-04-03T05:12:58;11.02;;;4.00;;
44973;SDS011;60981;50.720;11.342;2023-04-03T05:14:02;8.13;;;3.70;;
44973;SDS011;60981;50.720;11.342;2023-04-03T05:15:12;10.27;;;3.80;;
44973;SDS011;60981;50.720;11.342;2023-04-03T05:16:13;8.50;;;3.55;;
44973;SDS011;60981;50.720;11.342;2023-04-03T05:17:16;9.43;;;3.35;;
44973;SDS011;60981;50.720;11.342;2023-04-03T05:18:21;9.02;;;3.63;;
44973;SDS011;60981;50.720;11.342;2023-04-03T05:19:27;10.82;;;3.88;;
44973;SDS011;60981;50.720;11.342;2023-04-03T05:20:29;9.18;;;3.80;;
44973;SDS011;60981;50.720;11.342;2023-04-03T05:21:33;10.88;;;3.83;;
44973;SDS011;60981;50.720;11.342;2023-04-03T05:22:39;9.10;;;3.60;;
44973;SDS011;60981;50.720;11.342;2023-04-03T05:23:43;8.38;;;3.67;;
44973;SDS011;60981;50.720;11.342;2023-04-03T05:24:46;7.40;;;3.25;;
44973;SDS011;60981;50.720;11.342;2023-04-03T05:25:49;7.65;;;3.50;;
44973;SDS011;60981;50.720;11.342;2023-04-03T05:26:54;6.70;;;3.60;;
44973;SDS011;60981;50.720;11.342;2023-04-03T05:27:56;9.38;;;3.70;;
44973;SDS011;60981;50.720;11.342;2023-04-03T05:29:02;7.22;;;3.50;;
44973;SDS011;60981;50.720;11.342;2023-04-03T05:30:05;8.13;;;3.47;;
44973;SDS011;60981;50.720;11.342;2023-04-03T05:31:11;9.25;;;3.25;;
44973;SDS011;60981;50.720;11.342;2023-04-03T05:32:16;8.65;;;3.05;;
44973;SDS011;60981;50.720;11.342;2023-04-03T05:33:20;8.45;;;3.30;;
44973;SDS011;60981;50.720;11.342;2023-04-03T05:34:23;8.70;;;3.53;;
44973;SDS011;60981;50.720;11.342;2023-04-03T05:35:26;6.57;;;3.13;;
44973;SDS011;60981;50.720;11.342;2023-04-03T05:36:31;10.65;;;3.40;;
44973;SDS011;60981;50.720;11.342;2023-04-03T05:37:33;11.25;;;3.40;;
44973;SDS011;60981;50.720;11.342;2023-04-03T05:38:36;8.40;;;2.95;;
44973;SDS011;60981;50.720;11.342;2023-04-03T05:39:39;8.35;;;2.90;;
44973;SDS011;60981;50.720;11.342;2023-04-03T05:40:44;9.77;;;3.10;;
44973;SDS011;60981;50.720;11.342;2023-04-03T05:41:49;9.27;;;3.40;;
44973;SDS011;60981;50.720;11.342;2023-04-03T05:42:54;7.50;;;3.58;;
44973;SDS011;60981;50.720;11.342;2023-04-03T05:44:01;6.20;;;2.97;;
44973;SDS011;60981;50.720;11.342;2023-04-03T05:45:03;7.20;;;3.03;;
44973;SDS011;60981;50.720;11.342;2023-04-03T05:46:12;8.52;;;2.80;;
44973;SDS011;60981;50.720;11.342;2023-04-03T05:47:17;9.20;;;2.75;;
44973;SDS011;60981;50.720;11.342;2023-04-03T05:48:20;6.90;;;3.00;;
44973;SDS011;60981;50.720;11.342;2023-04-03T05:49:23;9.07;;;3.13;;
44973;SDS011;60981;50.720;11.342;2023-04-03T05:50:29;9.00;;;3.25;;
44973;SDS011;60981;50.720;11.342;2023-04-03T05:51:34;8.48;;;2.85;;
44973;SDS011;60981;50.720;11.342;2023-04-03T05:52:40;6.75;;;2.75;;
44973;SDS011;60981;50.720;11.342;2023-04-03T05:53:46;9.77;;;3.58;;
44973;SDS011;60981;50.720;11.342;2023-04-03T05:54:49;8.68;;;3.58;;
44973;SDS011;60981;50.720;11.342;2023-04-03T05:55:54;8.73;;;3.45;;
44973;SDS011;60981;50.720;11.342;2023-04-03T05:57:00;8.13;;;2.93;;
44973;SDS011;60981;50.720;11.342;2023-04-03T05:58:07;7.50;;;3.10;;
44973;SDS011;60981;50.720;11.342;2023-04-03T05:59:13;8.43;;;3.65;;
44973;SDS011;60981;50.720;11.342;2023-04-03T06:00:18;8.93;;;3.20;;
44973;SDS011;60981;50.720;11.342;2023-04-03T06:01:20;9.45;;;3.00;;
44973;SDS011;60981;50.720;11.342;2023-04-03T06:02:22;10.18;;;3.30;;
44973;SDS011;60981;50.720;11.342;2023-04-03T06:03:30;9.70;;;3.15;;
44973;SDS011;60981;50.720;11.342;2023-04-03T06:04:35;9.32;;;2.95;;
44973;SDS011;60981;50.720;11.342;2023-04-03T06:05:40;8.50;;;3.65;;
44973;SDS011;60981;50.720;11.342;2023-04-03T06:08:11;9.63;;;3.40;;
44973;SDS011;60981;50.720;11.342;2023-04-03T06:09:16;8.07;;;3.37;;
44973;SDS011;60981;50.720;11.342;2023-04-03T06:10:22;8.55;;;3.08;;
44973;SDS011;60981;50.720;11.342;2023-04-03T06:11:26;6.40;;;3.40;;
44973;SDS011;60981;50.720;11.342;2023-04-03T06:12:31;9.27;;;3.60;;
44973;SDS011;60981;50.720;11.342;2023-04-03T06:13:34;8.35;;;3.15;;
44973;SDS011;60981;50.720;11.342;2023-04-03T06:14:39;9.43;;;3.50;;
44973;SDS011;60981;50.720;11.342;2023-04-03T06:15:43;9.38;;;3.35;;
44973;SDS011;60981;50.720;11.342;2023-04-03T06:16:49;9.32;;;3.15;;
44973;SDS011;60981;50.720;11.342;2023-04-03T06:17:53;8.65;;;3.05;;
44973;SDS011;60981;50.720;11.342;2023-04-03T06:18:57;7.68;;;3.50;;
44973;SDS011;60981;50.720;11.342;2023-04-03T06:20:00;7.47;;;3.35;;
44973;SDS011;60981;50.720;11.342;2023-04-03T06:21:05;7.50;;;3.65;;
44973;SDS011;60981;50.720;11.342;2023-04-03T06:22:15;10.30;;;3.63;;
44973;SDS011;60981;50.720;11.342;2023-04-03T06:23:18;6.25;;;3.22;;
44973;SDS011;60981;50.720;11.342;2023-04-03T06:24:20;8.30;;;3.70;;
44973;SDS011;60981;50.720;11.342;2023-04-03T06:25:25;8.63;;;3.60;;
44973;SDS011;60981;50.720;11.342;2023-04-03T06:26:28;8.50;;;3.70;;
44973;SDS011;60981;50.720;11.342;2023-04-03T06:27:34;7.97;;;3.65;;
44973;SDS011;60981;50.720;11.342;2023-04-03T06:28:39;10.88;;;3.22;;
44973;SDS011;60981;50.720;11.342;2023-04-03T06:29:44;7.55;;;2.90;;
44973;SDS011;60981;50.720;11.342;2023-04-03T06:30:47;7.90;;;2.83;;
44973;SDS011;60981;50.720;11.342;2023-04-03T06:31:51;9.30;;;3.60;;
44973;SDS011;60981;50.720;11.342;2023-04-03T06:32:53;8.38;;;3.13;;
44973;SDS011;60981;50.720;11.342;2023-04-03T06:34:00;10.48;;;5.22;;
44973;SDS011;60981;50.720;11.342;2023-04-03T06:35:04;12.60;;;6.70;;
44973;SDS011;60981;50.720;11.342;2023-04-03T06:36:10;9.00;;;4.10;;
44973;SDS011;60981;50.720;11.342;2023-04-03T06:37:16;8.55;;;4.13;;
44973;SDS011;60981;50.720;11.342;2023-04-03T06:38:21;10.32;;;4.07;;
44973;SDS011;60981;50.720;11.342;2023-04-03T06:39:26;7.85;;;3.72;;
44973;SDS011;60981;50.720;11.342;2023-04-03T06:42:18;9.70;;;4.00;;
44973;SDS011;60981;50.720;11.342;2023-04-03T06:43:29;9.45;;;3.67;;
44973;SDS011;60981;50.720;11.342;2023-04-03T06:44:56;9.15;;;3.50;;
44973;SDS011;60981;50.720;11.342;2023-04-03T06:46:01;7.93;;;3.28;;
44973;SDS011;60981;50.720;11.342;2023-04-03T06:47:10;8.90;;;3.95;;
44973;SDS011;60981;50.720;11.342;2023-04-03T06:48:17;5.70;;;2.80;;
44973;SDS011;60981;50.720;11.342;2023-04-03T06:49:20;6.25;;;2.85;;
44973;SDS011;60981;50.720;11.342;2023-04-03T06:50:33;8.10;;;2.90;;
44973;SDS011;60981;50.720;11.342;2023-04-03T06:51:37;5.22;;;2.80;;
44973;SDS011;60981;50.720;11.342;2023-04-03T06:57:08;6.65;;;2.53;;
44973;SDS011;60981;50.720;11.342;2023-04-03T06:58:27;7.90;;;2.90;;
44973;SDS011;60981;50.720;11.342;2023-04-03T06:59:30;6.28;;;2.63;;
44973;SDS011;60981;50.720;11.342;2023-04-03T07:00:38;8.20;;;3.63;;
44973;SDS011;60981;50.720;11.342;2023-04-03T07:01:45;10.35;;;3.70;;
44973;SDS011;60981;50.720;11.342;2023-04-03T07:02:49;8.27;;;3.35;;
44973;SDS011;60981;50.720;11.342;2023-04-03T07:03:55;6.90;;;3.30;;
44973;SDS011;60981;50.720;11.342;2023-04-03T07:06:35;7.38;;;3.50;;
44973;SDS011;60981;50.720;11.342;2023-04-03T07:07:53;10.43;;;5.43;;
44973;SDS011;60981;50.720;11.342;2023-04-03T07:11:13;6.05;;;3.30;;
44973;SDS011;60981;50.720;11.342;2023-04-03T07:12:19;8.88;;;3.15;;
44973;SDS011;60981;50.720;11.342;2023-04-03T07:17:23;7.40;;;3.42;;
44973;SDS011;60981;50.720;11.342;2023-04-03T07:19:03;6.40;;;3.20;;
44973;SDS011;60981;50.720;11.342;2023-04-03T07:20:32;8.55;;;3.20;;
44973;SDS011;60981;50.720;11.342;2023-04-03T07:21:38;8.10;;;3.30;;
44973;SDS011;60981;50.720;11.342;2023-04-03T07:22:44;7.70;;;3.05;;
44973;SDS011;60981;50.720;11.342;2023-04-03T07:23:49;5.70;;;2.50;;
44973;SDS011;60981;50.720;11.342;2023-04-03T07:24:56;7.47;;;3.00;;
44973;SDS011;60981;50.720;11.342;2023-04-03T07:26:02;7.43;;;3.03;;
44973;SDS011;60981;50.720;11.342;2023-04-03T07:27:08;6.35;;;2.90;;
44973;SDS011;60981;50.720;11.342;2023-04-03T07:28:13;8.35;;;3.03;;
44973;SDS011;60981;50.720;11.342;2023-04-03T07:29:15;8.43;;;3.00;;
44973;SDS011;60981;50.720;11.342;2023-04-03T07:30:20;8.45;;;2.97;;
44973;SDS011;60981;50.720;11.342;2023-04-03T07:31:25;7.43;;;3.25;;
44973;SDS011;60981;50.720;11.342;2023-04-03T07:32:30;7.15;;;3.08;;
44973;SDS011;60981;50.720;11.342;2023-04-03T07:33:33;5.40;;;2.78;;
44973;SDS011;60981;50.720;11.342;2023-04-03T07:34:38;5.90;;;2.58;;
44973;SDS011;60981;50.720;11.342;2023-04-03T07:35:42;6.05;;;2.35;;
44973;SDS011;60981;50.720;11.342;2023-04-03T07:36:46;5.00;;;2.50;;
44973;SDS011;60981;50.720;11.342;2023-04-03T07:37:49;6.28;;;2.45;;
44973;SDS011;60981;50.720;11.342;2023-04-03T07:38:56;10.82;;;2.78;;
44973;SDS011;60981;50.720;11.342;2023-04-03T07:40:04;8.13;;;2.20;;
44973;SDS011;60981;50.720;11.342;2023-04-03T07:41:11;6.40;;;1.92;;
44973;SDS011;60981;50.720;11.342;2023-04-03T07:42:14;10.10;;;2.47;;
44973;SDS011;60981;50.720;11.342;2023-04-03T07:43:16;7.38;;;2.55;;
44973;SDS011;60981;50.720;11.342;2023-04-03T07:44:21;6.50;;;2.38;;
44973;SDS011;60981;50.720;11.342;2023-04-03T07:45:25;4.45;;;2.35;;
44973;SDS011;60981;50.720;11.342;2023-04-03T07:46:30;5.80;;;2.45;;
44973;SDS011;60981;50.720;11.342;2023-04-03T07:47:32;6.65;;;2.00;;
44973;SDS011;60981;50.720;11.342;2023-04-03T07:48:38;10.07;;;2.60;;
44973;SDS011;60981;50.720;11.342;2023-04-03T07:49:41;7.32;;;2.33;;
44973;SDS011;60981;50.720;11.342;2023-04-03T07:50:46;5.13;;;2.17;;
44973;SDS011;60981;50.720;11.342;2023-04-03T07:51:51;7.20;;;2.53;;
44973;SDS011;60981;50.720;11.342;2023-04-03T07:52:56;5.68;;;2.60;;
44973;SDS011;60981;50.720;11.342;2023-04-03T07:53:59;6.47;;;2.58;;
44973;SDS011;60981;50.720;11.342;2023-04-03T07:55:02;6.22;;;2.47;;
44973;SDS011;60981;50.720;11.342;2023-04-03T07:56:10;8.25;;;3.10;;
44973;SDS011;60981;50.720;11.342;2023-04-03T07:57:12;7.93;;;2.83;;
44973;SDS011;60981;50.720;11.342;2023-04-03T07:58:16;6.97;;;2.60;;
44973;SDS011;60981;50.720;11.342;2023-04-03T07:59:19;5.03;;;2.40;;
44973;SDS011;60981;50.720;11.342;2023-04-03T08:00:25;8.30;;;2.20;;